sensor_id;sensor_type;location;lat;lon;timestamp;P1;durP1;ratioP1;P2;durP2;ratioP2
54935;SDS011;40838;50.676;7.838;2022-12-13T00:01:11;73.97;;;23.25;;
54935;SDS011;40838;50.676;7.838;2022-12-13T00:03:39;61.72;;;22.70;;
54935;SDS011;40838;50.676;7.838;2022-12-13T00:06:06;61.67;;;22.48;;
54935;SDS011;40838;50.676;7.838;2022-12-13T00:08:33;64.50;;;23.35;;
54935;SDS011;40838;50.676;7.838;2022-12-13T00:11:01;56.75;;;21.88;;
54935;SDS011;40838;50.676;7.838;2022-12-13T00:13:30;63.58;;;20.73;;
54935;SDS011;40838;50.676;7.838;2022-12-13T00:15:58;56.88;;;21.17;;
54935;SDS011;40838;50.676;7.838;2022-12-13T00:18:30;62.88;;;21.90;;
54935;SDS011;40838;50.676;7.838;2022-12-13T00:20:57;58.30;;;21.55;;
54935;SDS011;40838;50.676;7.838;2022-12-13T00:23:24;58.30;;;21.38;;
54935;SDS011;40838;50.676;7.838;2022-12-13T00:25:53;59.65;;;21.58;;
54935;SDS011;40838;50.676;7.838;2022-12-13T00:28:20;62.05;;;22.05;;
54935;SDS011;40838;50.676;7.838;2022-12-13T00:30:47;58.20;;;22.27;;
54935;SDS011;40838;50.676;7.838;2022-12-13T00:33:16;56.15;;;20.50;;
54935;SDS011;40838;50.676;7.838;2022-12-13T00:35:44;59.60;;;20.75;;
54935;SDS011;40838;50.676;7.838;2022-12-13T00:38:11;59.72;;;22.08;;
54935;SDS011;40838;50.676;7.838;2022-12-13T00:40:39;64.07;;;22.80;;
54935;SDS011;40838;50.676;7.838;2022-12-13T00:43:06;54.55;;;20.83;;
54935;SDS011;40838;50.676;7.838;2022-12-13T00:45:33;55.28;;;20.52;;
54935;SDS011;40838;50.676;7.838;2022-12-13T00:48:00;62.47;;;21.70;;
54935;SDS011;40838;50.676;7.838;2022-12-13T00:50:27;54.38;;;20.98;;
54935;SDS011;40838;50.676;7.838;2022-12-13T00:52:55;51.05;;;19.05;;
54935;SDS011;40838;50.676;7.838;2022-12-13T00:55:24;55.83;;;21.10;;
54935;SDS011;40838;50.676;7.838;2022-12-13T00:57:51;56.92;;;20.25;;
54935;SDS011;40838;50.676;7.838;2022-12-13T01:00:18;53.70;;;19.23;;
54935;SDS011;40838;50.676;7.838;2022-12-13T01:02:45;56.78;;;20.27;;
54935;SDS011;40838;50.676;7.838;2022-12-13T01:05:12;56.25;;;19.55;;
54935;SDS011;40838;50.676;7.838;2022-12-13T01:07:39;52.08;;;18.23;;
54935;SDS011;40838;50.676;7.838;2022-12-13T01:10:10;52.60;;;19.63;;
54935;SDS011;40838;50.676;7.838;2022-12-13T01:12:38;49.17;;;18.63;;
54935;SDS011;40838;50.676;7.838;2022-12-13T01:15:05;48.97;;;19.10;;
54935;SDS011;40838;50.676;7.838;2022-12-13T01:17:33;53.35;;;18.48;;
54935;SDS011;40838;50.676;7.838;2022-12-13T01:20:01;48.15;;;18.58;;
54935;SDS011;40838;50.676;7.838;2022-12-13T01:22:28;53.30;;;19.63;;
54935;SDS011;40838;50.676;7.838;2022-12-13T01:24:54;57.85;;;20.42;;
54935;SDS011;40838;50.676;7.838;2022-12-13T01:27:23;58.47;;;20.42;;
54935;SDS011;40838;50.676;7.838;2022-12-13T01:29:49;52.30;;;19.30;;
54935;SDS011;40838;50.676;7.838;2022-12-13T01:32:16;52.35;;;18.02;;
54935;SDS011;40838;50.676;7.838;2022-12-13T01:34:45;45.42;;;18.23;;
54935;SDS011;40838;50.676;7.838;2022-12-13T01:37:12;52.97;;;17.85;;
54935;SDS011;40838;50.676;7.838;2022-12-13T01:39:38;45.25;;;16.67;;
54935;SDS011;40838;50.676;7.838;2022-12-13T01:42:05;50.15;;;17.92;;
54935;SDS011;40838;50.676;7.838;2022-12-13T01:47:31;45.75;;;17.50;;
54935;SDS011;40838;50.676;7.838;2022-12-13T01:52:33;47.95;;;16.55;;
54935;SDS011;40838;50.676;7.838;2022-12-13T01:55:02;45.53;;;16.35;;
54935;SDS011;40838;50.676;7.838;2022-12-13T01:57:32;44.65;;;18.50;;
54935;SDS011;40838;50.676;7.838;2022-12-13T02:00:04;60.58;;;18.02;;
54935;SDS011;40838;50.676;7.838;2022-12-13T02:02:36;47.75;;;16.38;;
54935;SDS011;40838;50.676;7.838;2022-12-13T02:05:05;51.75;;;17.20;;
54935;SDS011;40838;50.676;7.838;2022-12-13T02:07:37;47.22;;;16.90;;
54935;SDS011;40838;50.676;7.838;2022-12-13T02:10:10;58.60;;;17.92;;
54935;SDS011;40838;50.676;7.838;2022-12-13T02:12:37;49.47;;;16.33;;
54935;SDS011;40838;50.676;7.838;2022-12-13T02:15:08;52.83;;;17.65;;
54935;SDS011;40838;50.676;7.838;2022-12-13T02:17:43;57.08;;;18.55;;
54935;SDS011;40838;50.676;7.838;2022-12-13T02:20:26;52.13;;;18.45;;
54935;SDS011;40838;50.676;7.838;2022-12-13T02:23:09;47.47;;;15.80;;
54935;SDS011;40838;50.676;7.838;2022-12-13T02:25:54;44.60;;;17.90;;
54935;SDS011;40838;50.676;7.838;2022-12-13T02:28:37;45.50;;;17.90;;
54935;SDS011;40838;50.676;7.838;2022-12-13T02:31:16;50.55;;;16.48;;
54935;SDS011;40838;50.676;7.838;2022-12-13T02:33:50;47.50;;;18.17;;
54935;SDS011;40838;50.676;7.838;2022-12-13T02:36:23;49.17;;;16.98;;
54935;SDS011;40838;50.676;7.838;2022-12-13T02:38:57;51.10;;;18.00;;
54935;SDS011;40838;50.676;7.838;2022-12-13T02:41:27;59.92;;;18.15;;
54935;SDS011;40838;50.676;7.838;2022-12-13T02:44:03;50.22;;;18.83;;
54935;SDS011;40838;50.676;7.838;2022-12-13T02:46:35;55.42;;;21.60;;
54935;SDS011;40838;50.676;7.838;2022-12-13T02:49:06;54.28;;;19.73;;
54935;SDS011;40838;50.676;7.838;2022-12-13T02:51:35;44.35;;;17.75;;
54935;SDS011;40838;50.676;7.838;2022-12-13T02:54:04;50.28;;;19.25;;
54935;SDS011;40838;50.676;7.838;2022-12-13T02:56:31;57.63;;;21.42;;
54935;SDS011;40838;50.676;7.838;2022-12-13T02:58:57;56.30;;;20.52;;
54935;SDS011;40838;50.676;7.838;2022-12-13T03:01:31;59.42;;;22.17;;
54935;SDS011;40838;50.676;7.838;2022-12-13T03:04:12;50.10;;;19.55;;
54935;SDS011;40838;50.676;7.838;2022-12-13T03:06:49;47.70;;;16.88;;
54935;SDS011;40838;50.676;7.838;2022-12-13T03:09:25;55.00;;;20.13;;
54935;SDS011;40838;50.676;7.838;2022-12-13T03:12:17;50.92;;;17.92;;
54935;SDS011;40838;50.676;7.838;2022-12-13T03:15:10;51.65;;;19.77;;
54935;SDS011;40838;50.676;7.838;2022-12-13T03:17:44;49.95;;;18.58;;
54935;SDS011;40838;50.676;7.838;2022-12-13T03:20:15;51.72;;;19.27;;
54935;SDS011;40838;50.676;7.838;2022-12-13T03:22:43;52.15;;;20.13;;
54935;SDS011;40838;50.676;7.838;2022-12-13T03:25:10;48.10;;;18.33;;
54935;SDS011;40838;50.676;7.838;2022-12-13T03:27:37;53.08;;;18.90;;
54935;SDS011;40838;50.676;7.838;2022-12-13T03:30:05;52.33;;;19.15;;
54935;SDS011;40838;50.676;7.838;2022-12-13T03:32:32;54.58;;;20.40;;
54935;SDS011;40838;50.676;7.838;2022-12-13T03:35:00;50.22;;;18.38;;
54935;SDS011;40838;50.676;7.838;2022-12-13T03:37:27;50.28;;;19.25;;
54935;SDS011;40838;50.676;7.838;2022-12-13T03:39:54;45.97;;;16.63;;
54935;SDS011;40838;50.676;7.838;2022-12-13T03:42:22;44.40;;;17.17;;
54935;SDS011;40838;50.676;7.838;2022-12-13T03:44:49;52.22;;;18.98;;
54935;SDS011;40838;50.676;7.838;2022-12-13T03:47:16;47.28;;;17.50;;
54935;SDS011;40838;50.676;7.838;2022-12-13T03:49:43;43.67;;;16.55;;
54935;SDS011;40838;50.676;7.838;2022-12-13T03:52:11;42.75;;;15.88;;
54935;SDS011;40838;50.676;7.838;2022-12-13T03:54:38;42.50;;;16.38;;
54935;SDS011;40838;50.676;7.838;2022-12-13T03:57:05;43.55;;;16.25;;
54935;SDS011;40838;50.676;7.838;2022-12-13T03:59:32;37.85;;;14.63;;
54935;SDS011;40838;50.676;7.838;2022-12-13T04:01:58;38.15;;;14.38;;
54935;SDS011;40838;50.676;7.838;2022-12-13T04:04:27;41.13;;;14.90;;
54935;SDS011;40838;50.676;7.838;2022-12-13T04:06:54;33.63;;;12.55;;
54935;SDS011;40838;50.676;7.838;2022-12-13T04:09:23;39.08;;;14.23;;
54935;SDS011;40838;50.676;7.838;2022-12-13T04:11:50;41.03;;;15.20;;
54935;SDS011;40838;50.676;7.838;2022-12-13T04:14:34;34.90;;;14.02;;
54935;SDS011;40838;50.676;7.838;2022-12-13T04:17:01;39.78;;;15.13;;
54935;SDS011;40838;50.676;7.838;2022-12-13T04:19:27;36.70;;;13.88;;
54935;SDS011;40838;50.676;7.838;2022-12-13T04:21:54;39.35;;;13.25;;
54935;SDS011;40838;50.676;7.838;2022-12-13T04:24:23;42.83;;;16.55;;
54935;SDS011;40838;50.676;7.838;2022-12-13T04:26:50;46.78;;;15.65;;
54935;SDS011;40838;50.676;7.838;2022-12-13T04:29:17;38.35;;;15.55;;
54935;SDS011;40838;50.676;7.838;2022-12-13T04:31:44;47.95;;;17.80;;
54935;SDS011;40838;50.676;7.838;2022-12-13T04:34:11;39.10;;;15.13;;
54935;SDS011;40838;50.676;7.838;2022-12-13T04:36:38;41.10;;;16.13;;
54935;SDS011;40838;50.676;7.838;2022-12-13T04:39:06;42.75;;;16.38;;
54935;SDS011;40838;50.676;7.838;2022-12-13T04:41:35;44.38;;;16.55;;
54935;SDS011;40838;50.676;7.838;2022-12-13T04:44:03;52.45;;;19.13;;
54935;SDS011;40838;50.676;7.838;2022-12-13T04:46:31;52.10;;;19.30;;
54935;SDS011;40838;50.676;7.838;2022-12-13T04:48:58;40.80;;;16.17;;
54935;SDS011;40838;50.676;7.838;2022-12-13T04:51:25;53.85;;;18.48;;
54935;SDS011;40838;50.676;7.838;2022-12-13T04:53:52;48.10;;;18.58;;
54935;SDS011;40838;50.676;7.838;2022-12-13T04:56:19;49.95;;;17.52;;
54935;SDS011;40838;50.676;7.838;2022-12-13T04:58:48;45.45;;;17.65;;
54935;SDS011;40838;50.676;7.838;2022-12-13T05:01:14;48.88;;;16.92;;
54935;SDS011;40838;50.676;7.838;2022-12-13T05:03:41;49.38;;;18.17;;
54935;SDS011;40838;50.676;7.838;2022-12-13T05:06:08;51.58;;;18.20;;
54935;SDS011;40838;50.676;7.838;2022-12-13T05:08:36;52.47;;;19.15;;
54935;SDS011;40838;50.676;7.838;2022-12-13T05:11:05;49.22;;;19.40;;
54935;SDS011;40838;50.676;7.838;2022-12-13T05:13:33;55.13;;;19.67;;
54935;SDS011;40838;50.676;7.838;2022-12-13T05:16:02;47.83;;;18.20;;
54935;SDS011;40838;50.676;7.838;2022-12-13T05:18:30;52.72;;;19.75;;
54935;SDS011;40838;50.676;7.838;2022-12-13T05:21:00;54.92;;;19.10;;
54935;SDS011;40838;50.676;7.838;2022-12-13T05:23:27;44.42;;;17.33;;
54935;SDS011;40838;50.676;7.838;2022-12-13T05:25:54;71.72;;;26.42;;
54935;SDS011;40838;50.676;7.838;2022-12-13T05:28:21;50.20;;;17.92;;
54935;SDS011;40838;50.676;7.838;2022-12-13T05:30:50;51.28;;;17.15;;
54935;SDS011;40838;50.676;7.838;2022-12-13T05:33:21;40.42;;;15.15;;
54935;SDS011;40838;50.676;7.838;2022-12-13T05:35:48;49.92;;;17.55;;
54935;SDS011;40838;50.676;7.838;2022-12-13T05:38:15;53.50;;;17.30;;
54935;SDS011;40838;50.676;7.838;2022-12-13T05:40:43;48.63;;;16.05;;
54935;SDS011;40838;50.676;7.838;2022-12-13T05:43:10;53.38;;;20.92;;
54935;SDS011;40838;50.676;7.838;2022-12-13T05:45:37;49.50;;;15.10;;
54935;SDS011;40838;50.676;7.838;2022-12-13T05:48:04;53.63;;;17.02;;
54935;SDS011;40838;50.676;7.838;2022-12-13T05:50:32;36.33;;;15.57;;
54935;SDS011;40838;50.676;7.838;2022-12-13T05:53:00;49.28;;;17.38;;
54935;SDS011;40838;50.676;7.838;2022-12-13T05:55:28;53.15;;;16.23;;
54935;SDS011;40838;50.676;7.838;2022-12-13T05:57:56;42.65;;;15.85;;
54935;SDS011;40838;50.676;7.838;2022-12-13T06:00:23;42.97;;;15.77;;
54935;SDS011;40838;50.676;7.838;2022-12-13T06:02:50;41.97;;;15.30;;
54935;SDS011;40838;50.676;7.838;2022-12-13T06:05:17;36.38;;;14.07;;
54935;SDS011;40838;50.676;7.838;2022-12-13T06:07:45;44.65;;;15.65;;
54935;SDS011;40838;50.676;7.838;2022-12-13T06:10:12;38.47;;;14.57;;
54935;SDS011;40838;50.676;7.838;2022-12-13T06:12:39;43.78;;;15.63;;
54935;SDS011;40838;50.676;7.838;2022-12-13T06:15:06;47.75;;;16.25;;
54935;SDS011;40838;50.676;7.838;2022-12-13T06:17:34;34.75;;;13.27;;
54935;SDS011;40838;50.676;7.838;2022-12-13T06:20:02;41.58;;;14.48;;
54935;SDS011;40838;50.676;7.838;2022-12-13T06:22:30;42.45;;;14.45;;
54935;SDS011;40838;50.676;7.838;2022-12-13T06:24:58;40.22;;;14.40;;
54935;SDS011;40838;50.676;7.838;2022-12-13T06:27:25;42.65;;;16.92;;
54935;SDS011;40838;50.676;7.838;2022-12-13T06:29:52;47.25;;;17.67;;
54935;SDS011;40838;50.676;7.838;2022-12-13T06:32:19;32.85;;;13.02;;
54935;SDS011;40838;50.676;7.838;2022-12-13T06:34:46;38.00;;;13.25;;
54935;SDS011;40838;50.676;7.838;2022-12-13T06:37:13;39.42;;;15.23;;
54935;SDS011;40838;50.676;7.838;2022-12-13T06:39:42;26.80;;;11.95;;
54935;SDS011;40838;50.676;7.838;2022-12-13T06:42:14;33.45;;;12.85;;
54935;SDS011;40838;50.676;7.838;2022-12-13T06:44:42;36.10;;;13.80;;
54935;SDS011;40838;50.676;7.838;2022-12-13T06:47:09;24.85;;;11.13;;
54935;SDS011;40838;50.676;7.838;2022-12-13T06:49:37;29.65;;;12.23;;
54935;SDS011;40838;50.676;7.838;2022-12-13T06:52:04;32.15;;;13.63;;
54935;SDS011;40838;50.676;7.838;2022-12-13T06:54:31;27.35;;;11.43;;
54935;SDS011;40838;50.676;7.838;2022-12-13T06:56:58;31.23;;;12.10;;
54935;SDS011;40838;50.676;7.838;2022-12-13T06:59:27;33.17;;;13.52;;
54935;SDS011;40838;50.676;7.838;2022-12-13T07:01:53;32.97;;;12.85;;
54935;SDS011;40838;50.676;7.838;2022-12-13T07:04:20;35.00;;;13.07;;
54935;SDS011;40838;50.676;7.838;2022-12-13T07:06:47;32.30;;;13.10;;
54935;SDS011;40838;50.676;7.838;2022-12-13T07:09:14;35.05;;;14.20;;
54935;SDS011;40838;50.676;7.838;2022-12-13T07:11:41;38.30;;;13.40;;
54935;SDS011;40838;50.676;7.838;2022-12-13T07:14:08;34.88;;;13.52;;
54935;SDS011;40838;50.676;7.838;2022-12-13T07:16:36;35.92;;;13.07;;
54935;SDS011;40838;50.676;7.838;2022-12-13T07:19:03;33.25;;;12.98;;
54935;SDS011;40838;50.676;7.838;2022-12-13T07:21:31;34.45;;;13.05;;
54935;SDS011;40838;50.676;7.838;2022-12-13T07:24:00;39.58;;;14.05;;
54935;SDS011;40838;50.676;7.838;2022-12-13T07:26:28;32.40;;;13.60;;
54935;SDS011;40838;50.676;7.838;2022-12-13T07:28:55;36.20;;;13.43;;
54935;SDS011;40838;50.676;7.838;2022-12-13T07:31:22;31.15;;;12.20;;
54935;SDS011;40838;50.676;7.838;2022-12-13T07:33:51;31.85;;;12.27;;
54935;SDS011;40838;50.676;7.838;2022-12-13T07:36:19;39.00;;;15.25;;
54935;SDS011;40838;50.676;7.838;2022-12-13T07:38:49;32.55;;;13.23;;
54935;SDS011;40838;50.676;7.838;2022-12-13T07:41:17;37.80;;;14.43;;
54935;SDS011;40838;50.676;7.838;2022-12-13T07:43:44;36.13;;;15.10;;
54935;SDS011;40838;50.676;7.838;2022-12-13T07:46:11;35.00;;;13.10;;
54935;SDS011;40838;50.676;7.838;2022-12-13T07:48:38;34.17;;;13.40;;
54935;SDS011;40838;50.676;7.838;2022-12-13T07:51:07;35.28;;;14.65;;
54935;SDS011;40838;50.676;7.838;2022-12-13T07:53:37;35.78;;;13.60;;
54935;SDS011;40838;50.676;7.838;2022-12-13T07:56:04;35.50;;;14.98;;
54935;SDS011;40838;50.676;7.838;2022-12-13T07:58:33;37.10;;;14.35;;
54935;SDS011;40838;50.676;7.838;2022-12-13T08:01:00;26.58;;;13.23;;
54935;SDS011;40838;50.676;7.838;2022-12-13T08:03:29;34.40;;;13.75;;
54935;SDS011;40838;50.676;7.838;2022-12-13T08:05:57;35.70;;;14.70;;
54935;SDS011;40838;50.676;7.838;2022-12-13T08:08:26;39.10;;;13.80;;
54935;SDS011;40838;50.676;7.838;2022-12-13T08:10:53;34.28;;;13.63;;
54935;SDS011;40838;50.676;7.838;2022-12-13T08:13:20;32.65;;;13.48;;
54935;SDS011;40838;50.676;7.838;2022-12-13T08:15:47;36.50;;;13.88;;
54935;SDS011;40838;50.676;7.838;2022-12-13T08:18:14;34.45;;;14.18;;
54935;SDS011;40838;50.676;7.838;2022-12-13T08:20:41;37.38;;;14.50;;
54935;SDS011;40838;50.676;7.838;2022-12-13T08:23:11;39.40;;;16.45;;
54935;SDS011;40838;50.676;7.838;2022-12-13T08:25:42;36.33;;;15.50;;
54935;SDS011;40838;50.676;7.838;2022-12-13T08:28:16;37.03;;;15.13;;
54935;SDS011;40838;50.676;7.838;2022-12-13T08:30:43;46.50;;;18.58;;
54935;SDS011;40838;50.676;7.838;2022-12-13T08:33:10;38.70;;;18.27;;
54935;SDS011;40838;50.676;7.838;2022-12-13T08:35:37;43.25;;;20.00;;
54935;SDS011;40838;50.676;7.838;2022-12-13T08:38:04;41.38;;;19.13;;
54935;SDS011;40838;50.676;7.838;2022-12-13T08:40:31;31.83;;;14.35;;
54935;SDS011;40838;50.676;7.838;2022-12-13T08:43:00;32.20;;;12.95;;
54935;SDS011;40838;50.676;7.838;2022-12-13T08:45:27;28.33;;;12.60;;
54935;SDS011;40838;50.676;7.838;2022-12-13T08:47:56;27.98;;;11.85;;
54935;SDS011;40838;50.676;7.838;2022-12-13T08:50:24;26.45;;;12.15;;
54935;SDS011;40838;50.676;7.838;2022-12-13T08:52:50;31.48;;;16.10;;
54935;SDS011;40838;50.676;7.838;2022-12-13T08:55:18;26.45;;;11.82;;
54935;SDS011;40838;50.676;7.838;2022-12-13T08:57:44;29.67;;;13.98;;
54935;SDS011;40838;50.676;7.838;2022-12-13T09:00:14;24.00;;;11.35;;
54935;SDS011;40838;50.676;7.838;2022-12-13T09:02:42;24.52;;;10.75;;
54935;SDS011;40838;50.676;7.838;2022-12-13T09:05:09;32.08;;;13.05;;
54935;SDS011;40838;50.676;7.838;2022-12-13T09:07:37;23.75;;;11.35;;
54935;SDS011;40838;50.676;7.838;2022-12-13T09:10:05;26.33;;;11.68;;
54935;SDS011;40838;50.676;7.838;2022-12-13T09:12:33;23.60;;;9.73;;
54935;SDS011;40838;50.676;7.838;2022-12-13T09:15:00;21.65;;;9.80;;
54935;SDS011;40838;50.676;7.838;2022-12-13T09:17:31;24.35;;;11.82;;
54935;SDS011;40838;50.676;7.838;2022-12-13T09:20:00;19.52;;;9.82;;
54935;SDS011;40838;50.676;7.838;2022-12-13T09:22:27;22.95;;;10.32;;
54935;SDS011;40838;50.676;7.838;2022-12-13T09:24:54;20.67;;;9.73;;
54935;SDS011;40838;50.676;7.838;2022-12-13T09:27:21;24.20;;;11.30;;
54935;SDS011;40838;50.676;7.838;2022-12-13T09:29:48;25.70;;;11.27;;
54935;SDS011;40838;50.676;7.838;2022-12-13T09:32:15;22.60;;;10.57;;
54935;SDS011;40838;50.676;7.838;2022-12-13T09:34:44;22.15;;;11.13;;
54935;SDS011;40838;50.676;7.838;2022-12-13T09:37:12;24.85;;;11.85;;
54935;SDS011;40838;50.676;7.838;2022-12-13T09:39:39;26.33;;;11.82;;
54935;SDS011;40838;50.676;7.838;2022-12-13T09:42:08;30.00;;;12.60;;
54935;SDS011;40838;50.676;7.838;2022-12-13T09:44:44;25.15;;;11.85;;
54935;SDS011;40838;50.676;7.838;2022-12-13T09:47:21;19.45;;;10.20;;
54935;SDS011;40838;50.676;7.838;2022-12-13T09:49:55;21.20;;;10.65;;
54935;SDS011;40838;50.676;7.838;2022-12-13T09:52:27;25.63;;;10.85;;
54935;SDS011;40838;50.676;7.838;2022-12-13T09:55:09;27.90;;;12.25;;
54935;SDS011;40838;50.676;7.838;2022-12-13T09:57:45;16.63;;;9.23;;
54935;SDS011;40838;50.676;7.838;2022-12-13T10:00:16;19.85;;;10.07;;
54935;SDS011;40838;50.676;7.838;2022-12-13T10:02:45;22.10;;;10.77;;
54935;SDS011;40838;50.676;7.838;2022-12-13T10:05:24;22.40;;;10.15;;
54935;SDS011;40838;50.676;7.838;2022-12-13T10:07:55;20.85;;;10.77;;
54935;SDS011;40838;50.676;7.838;2022-12-13T10:10:25;20.33;;;9.88;;
54935;SDS011;40838;50.676;7.838;2022-12-13T10:12:55;21.65;;;9.63;;
54935;SDS011;40838;50.676;7.838;2022-12-13T10:15:26;18.23;;;9.30;;
54935;SDS011;40838;50.676;7.838;2022-12-13T10:17:55;19.10;;;8.65;;
54935;SDS011;40838;50.676;7.838;2022-12-13T10:20:25;21.52;;;10.40;;
54935;SDS011;40838;50.676;7.838;2022-12-13T10:22:55;18.65;;;8.15;;
54935;SDS011;40838;50.676;7.838;2022-12-13T10:28:11;16.60;;;8.10;;
54935;SDS011;40838;50.676;7.838;2022-12-13T10:30:40;16.52;;;7.60;;
54935;SDS011;40838;50.676;7.838;2022-12-13T10:33:17;16.38;;;7.90;;
54935;SDS011;40838;50.676;7.838;2022-12-13T10:36:00;15.20;;;7.50;;
54935;SDS011;40838;50.676;7.838;2022-12-13T10:38:36;18.30;;;9.35;;
54935;SDS011;40838;50.676;7.838;2022-12-13T10:44:06;15.50;;;7.53;;
54935;SDS011;40838;50.676;7.838;2022-12-13T10:46:34;15.35;;;7.82;;
54935;SDS011;40838;50.676;7.838;2022-12-13T10:49:01;13.95;;;6.68;;
54935;SDS011;40838;50.676;7.838;2022-12-13T10:51:35;17.27;;;8.50;;
54935;SDS011;40838;50.676;7.838;2022-12-13T10:54:04;17.58;;;7.45;;
54935;SDS011;40838;50.676;7.838;2022-12-13T10:56:38;14.20;;;7.25;;
54935;SDS011;40838;50.676;7.838;2022-12-13T10:59:16;14.88;;;7.30;;
54935;SDS011;40838;50.676;7.838;2022-12-13T11:01:51;17.58;;;8.00;;
54935;SDS011;40838;50.676;7.838;2022-12-13T11:04:20;15.32;;;7.00;;
54935;SDS011;40838;50.676;7.838;2022-12-13T11:06:50;14.07;;;7.25;;
54935;SDS011;40838;50.676;7.838;2022-12-13T11:09:23;16.10;;;8.10;;
54935;SDS011;40838;50.676;7.838;2022-12-13T11:11:51;15.80;;;7.75;;
54935;SDS011;40838;50.676;7.838;2022-12-13T11:14:22;10.85;;;5.63;;
54935;SDS011;40838;50.676;7.838;2022-12-13T11:16:51;13.13;;;7.18;;
54935;SDS011;40838;50.676;7.838;2022-12-13T11:19:23;14.35;;;6.10;;
54935;SDS011;40838;50.676;7.838;2022-12-13T11:21:59;13.48;;;6.65;;
54935;SDS011;40838;50.676;7.838;2022-12-13T11:24:27;13.98;;;6.43;;
54935;SDS011;40838;50.676;7.838;2022-12-13T11:26:57;16.65;;;7.10;;
54935;SDS011;40838;50.676;7.838;2022-12-13T11:32:08;12.70;;;7.45;;
54935;SDS011;40838;50.676;7.838;2022-12-13T11:34:45;17.60;;;8.48;;
54935;SDS011;40838;50.676;7.838;2022-12-13T11:37:35;15.93;;;6.80;;
54935;SDS011;40838;50.676;7.838;2022-12-13T11:40:10;10.13;;;5.22;;
54935;SDS011;40838;50.676;7.838;2022-12-13T11:42:42;14.25;;;6.88;;
54935;SDS011;40838;50.676;7.838;2022-12-13T11:45:15;14.32;;;7.57;;
54935;SDS011;40838;50.676;7.838;2022-12-13T11:47:48;13.57;;;7.07;;
54935;SDS011;40838;50.676;7.838;2022-12-13T11:50:24;16.55;;;7.55;;
54935;SDS011;40838;50.676;7.838;2022-12-13T11:52:58;13.40;;;6.65;;
54935;SDS011;40838;50.676;7.838;2022-12-13T11:55:34;15.73;;;7.22;;
54935;SDS011;40838;50.676;7.838;2022-12-13T11:58:05;12.70;;;6.15;;
54935;SDS011;40838;50.676;7.838;2022-12-13T12:00:39;15.70;;;6.95;;
54935;SDS011;40838;50.676;7.838;2022-12-13T12:03:14;13.73;;;6.75;;
54935;SDS011;40838;50.676;7.838;2022-12-13T12:05:45;17.42;;;7.60;;
54935;SDS011;40838;50.676;7.838;2022-12-13T12:08:18;15.65;;;6.82;;
54935;SDS011;40838;50.676;7.838;2022-12-13T12:10:55;15.75;;;7.53;;
54935;SDS011;40838;50.676;7.838;2022-12-13T12:13:28;14.95;;;7.30;;
54935;SDS011;40838;50.676;7.838;2022-12-13T12:16:04;14.68;;;7.45;;
54935;SDS011;40838;50.676;7.838;2022-12-13T12:18:36;15.27;;;6.82;;
54935;SDS011;40838;50.676;7.838;2022-12-13T12:21:06;16.02;;;5.35;;
54935;SDS011;40838;50.676;7.838;2022-12-13T12:23:53;12.95;;;6.18;;
54935;SDS011;40838;50.676;7.838;2022-12-13T12:26:31;9.18;;;4.82;;
54935;SDS011;40838;50.676;7.838;2022-12-13T12:29:16;8.95;;;4.18;;
54935;SDS011;40838;50.676;7.838;2022-12-13T12:32:03;11.88;;;5.78;;
54935;SDS011;40838;50.676;7.838;2022-12-13T12:34:36;14.15;;;6.32;;
54935;SDS011;40838;50.676;7.838;2022-12-13T12:37:15;14.90;;;6.63;;
54935;SDS011;40838;50.676;7.838;2022-12-13T12:39:56;11.55;;;5.32;;
54935;SDS011;40838;50.676;7.838;2022-12-13T12:42:38;12.90;;;6.00;;
54935;SDS011;40838;50.676;7.838;2022-12-13T12:48:16;12.10;;;5.53;;
54935;SDS011;40838;50.676;7.838;2022-12-13T12:50:55;11.93;;;5.32;;
54935;SDS011;40838;50.676;7.838;2022-12-13T12:53:35;12.48;;;5.07;;
54935;SDS011;40838;50.676;7.838;2022-12-13T12:56:12;10.13;;;5.35;;
54935;SDS011;40838;50.676;7.838;2022-12-13T12:59:03;11.07;;;4.82;;
54935;SDS011;40838;50.676;7.838;2022-12-13T13:01:44;11.48;;;4.82;;
54935;SDS011;40838;50.676;7.838;2022-12-13T13:04:20;9.93;;;5.28;;
54935;SDS011;40838;50.676;7.838;2022-12-13T13:06:53;12.35;;;5.53;;
54935;SDS011;40838;50.676;7.838;2022-12-13T13:09:25;12.23;;;6.30;;
54935;SDS011;40838;50.676;7.838;2022-12-13T13:11:55;11.88;;;5.70;;
54935;SDS011;40838;50.676;7.838;2022-12-13T13:14:27;10.23;;;5.05;;
54935;SDS011;40838;50.676;7.838;2022-12-13T13:16:56;13.02;;;5.72;;
54935;SDS011;40838;50.676;7.838;2022-12-13T13:22:27;13.77;;;5.22;;
54935;SDS011;40838;50.676;7.838;2022-12-13T13:24:57;13.52;;;5.30;;
54935;SDS011;40838;50.676;7.838;2022-12-13T13:27:39;11.65;;;5.25;;
54935;SDS011;40838;50.676;7.838;2022-12-13T13:30:14;17.15;;;5.85;;
54935;SDS011;40838;50.676;7.838;2022-12-13T13:32:44;12.50;;;6.05;;
54935;SDS011;40838;50.676;7.838;2022-12-13T13:41:39;16.35;;;6.28;;
54935;SDS011;40838;50.676;7.838;2022-12-13T13:44:34;11.90;;;5.88;;
54935;SDS011;40838;50.676;7.838;2022-12-13T13:47:35;13.23;;;6.75;;
54935;SDS011;40838;50.676;7.838;2022-12-13T13:53:12;12.43;;;5.88;;
54935;SDS011;40838;50.676;7.838;2022-12-13T13:56:10;14.68;;;6.70;;
54935;SDS011;40838;50.676;7.838;2022-12-13T14:05:08;12.70;;;5.88;;
54935;SDS011;40838;50.676;7.838;2022-12-13T14:08:09;12.00;;;5.97;;
54935;SDS011;40838;50.676;7.838;2022-12-13T14:17:05;12.60;;;5.80;;
54935;SDS011;40838;50.676;7.838;2022-12-13T14:20:16;16.42;;;7.28;;
54935;SDS011;40838;50.676;7.838;2022-12-13T14:23:01;15.32;;;6.28;;
54935;SDS011;40838;50.676;7.838;2022-12-13T14:25:45;12.25;;;5.95;;
54935;SDS011;40838;50.676;7.838;2022-12-13T14:28:32;12.52;;;5.70;;
54935;SDS011;40838;50.676;7.838;2022-12-13T14:31:12;10.45;;;5.38;;
54935;SDS011;40838;50.676;7.838;2022-12-13T14:33:42;10.70;;;4.85;;
54935;SDS011;40838;50.676;7.838;2022-12-13T14:36:14;14.15;;;6.00;;
54935;SDS011;40838;50.676;7.838;2022-12-13T14:38:49;17.45;;;7.32;;
54935;SDS011;40838;50.676;7.838;2022-12-13T14:41:24;20.40;;;6.65;;
54935;SDS011;40838;50.676;7.838;2022-12-13T14:44:13;14.85;;;7.32;;
54935;SDS011;40838;50.676;7.838;2022-12-13T14:46:47;16.27;;;6.95;;
54935;SDS011;40838;50.676;7.838;2022-12-13T14:49:17;14.82;;;7.13;;
54935;SDS011;40838;50.676;7.838;2022-12-13T14:51:47;15.50;;;6.60;;
54935;SDS011;40838;50.676;7.838;2022-12-13T14:54:24;14.85;;;6.75;;
54935;SDS011;40838;50.676;7.838;2022-12-13T14:56:53;14.13;;;5.97;;
54935;SDS011;40838;50.676;7.838;2022-12-13T14:59:21;13.07;;;6.68;;
54935;SDS011;40838;50.676;7.838;2022-12-13T15:01:52;13.57;;;6.57;;
54935;SDS011;40838;50.676;7.838;2022-12-13T15:04:30;15.63;;;6.95;;
54935;SDS011;40838;50.676;7.838;2022-12-13T15:07:02;16.42;;;7.75;;
54935;SDS011;40838;50.676;7.838;2022-12-13T15:09:33;10.95;;;6.05;;
54935;SDS011;40838;50.676;7.838;2022-12-13T15:12:07;13.20;;;6.22;;
54935;SDS011;40838;50.676;7.838;2022-12-13T15:14:36;13.95;;;6.13;;
54935;SDS011;40838;50.676;7.838;2022-12-13T15:17:04;14.40;;;6.13;;
54935;SDS011;40838;50.676;7.838;2022-12-13T15:19:32;17.42;;;7.55;;
54935;SDS011;40838;50.676;7.838;2022-12-13T15:22:21;17.20;;;7.20;;
54935;SDS011;40838;50.676;7.838;2022-12-13T15:27:33;20.45;;;7.70;;
54935;SDS011;40838;50.676;7.838;2022-12-13T15:30:00;20.20;;;7.55;;
54935;SDS011;40838;50.676;7.838;2022-12-13T15:32:29;24.13;;;8.43;;